ADW Airport (Joint Base Andrews) Information

FAA: ADW - ICAO: KADW

ADW Airport Location

State Maryland
County Prince Georges
City Camp Springs
ADW Airport is 3 miles east of Camp Springs, MD.
Latitude 38-48-38.9720N
Longitude 076-52-01.3670W
Elevation 279ft

KADW Airport METARs

METAR KADW 080456Z AUTO 00000KT 10SM CLR 00/M09 A3015 RMK AO2 SLP219 T00021088 400601030 $
Altimeter 30.15"
Temperature 0.2°C (32.4°F)
Wind 0° at 0KT
Clouds Skies are clear.
Visibility 10.0mi
Time observed: 2021-12-08T04:56:00Z

ADW Airport Details

Status Operational
Activation February 1944
Ownership Military - Air Force
Usage Private
Chart WASHINGTON
ATC on-site Yes
Beacon schedule sunset-sunrise
Beacon color clear green

ADW Airport Contacts

Owner USAF
Owner address ANDREWS AFB, WASHINGTON, DC 20331
Owner phone 301-981-1110
Manager ROBERT BUNTING
Manager address 9758 CAREY RD, BERLIN, MD 21811
Manager phone 410-641-2484

ADW Airport (Joint Base Andrews) Radio Frequencies

ADW (Airport) Radio Frequencies

UNICOM N/A
Common traffic advisory frequency (CTAF) N/A